createdAt,value
2022-08-25T00:01:23.014Z,87.30
2022-08-25T00:03:54.144Z,88.70
2022-08-25T00:06:22.118Z,88.40
2022-08-25T00:08:50.456Z,87.60
2022-08-25T00:11:19.480Z,87.80
2022-08-25T00:13:49.932Z,88.20
2022-08-25T00:16:18.906Z,88.40
2022-08-25T00:18:47.909Z,89.10
2022-08-25T00:21:16.234Z,89.30
2022-08-25T00:23:44.603Z,89.70
2022-08-25T00:26:12.729Z,89.90
2022-08-25T00:28:40.587Z,90.10
2022-08-25T00:31:11.989Z,90.30
2022-08-25T00:33:39.955Z,90.60
2022-08-25T00:36:07.831Z,91.00
2022-08-25T00:38:36.404Z,91.40
2022-08-25T00:41:07.832Z,91.20
2022-08-25T00:43:36.608Z,91.10
2022-08-25T00:46:04.803Z,91.50
2022-08-25T00:48:34.057Z,91.60
2022-08-25T00:51:02.831Z,91.90
2022-08-25T00:53:30.782Z,92.20
2022-08-25T00:55:59.770Z,92.50
2022-08-25T00:58:28.285Z,92.90
2022-08-25T01:00:57.700Z,93.20
2022-08-25T01:03:33.119Z,93.50
2022-08-25T01:06:05.970Z,93.80
2022-08-25T01:08:34.248Z,94.10
2022-08-25T01:11:05.635Z,94.30
2022-08-25T01:13:36.606Z,94.70
2022-08-25T01:16:04.714Z,94.90
2022-08-25T01:18:43.484Z,95.20
2022-08-25T01:21:13.024Z,95.50
2022-08-25T01:23:41.184Z,95.70
2022-08-25T01:26:10.490Z,95.70
2022-08-25T01:28:38.762Z,95.70
2022-08-25T01:31:23.825Z,95.90
2022-08-25T01:33:52.242Z,95.90
2022-08-25T01:36:21.975Z,96.10
2022-08-25T01:38:50.209Z,96.40
2022-08-25T01:41:18.395Z,97.10
2022-08-25T01:43:46.498Z,97.30
2022-08-25T01:46:14.395Z,97.30
2022-08-25T01:48:42.168Z,97.20
2022-08-25T01:51:09.878Z,97.50
2022-08-25T01:53:38.944Z,97.30
2022-08-25T01:56:11.566Z,97.20
2022-08-25T01:58:40.937Z,97.10
2022-08-25T02:01:09.990Z,97.20
2022-08-25T02:03:38.779Z,97.40
2022-08-25T02:06:12.343Z,97.60
2022-08-25T02:08:42.375Z,97.60
2022-08-25T02:11:12.319Z,97.60
2022-08-25T02:13:40.406Z,98.30
2022-08-25T02:16:09.075Z,98.30
2022-08-25T02:18:36.812Z,98.50
2022-08-25T02:21:04.730Z,98.50
2022-08-25T02:23:32.523Z,98.90
2022-08-25T02:26:02.062Z,99.10
2022-08-25T02:28:29.766Z,99.90
2022-08-25T02:31:01.649Z,99.90
2022-08-25T02:33:29.594Z,99.90
2022-08-25T02:35:58.926Z,99.90
2022-08-25T02:38:27.862Z,99.90
2022-08-25T02:40:55.591Z,99.90
2022-08-25T02:43:24.862Z,99.90
2022-08-25T02:45:52.690Z,99.90
2022-08-25T02:48:20.743Z,99.90
2022-08-25T02:50:48.507Z,99.90
2022-08-25T02:53:16.211Z,99.90
2022-08-25T02:55:43.914Z,99.90
2022-08-25T02:58:11.655Z,99.90
2022-08-25T03:00:40.697Z,99.90
2022-08-25T03:03:10.993Z,99.90
2022-08-25T03:05:39.298Z,99.90
2022-08-25T03:08:07.146Z,99.90
2022-08-25T03:10:35.362Z,99.90
2022-08-25T03:13:03.076Z,99.90
2022-08-25T03:15:30.783Z,99.90
2022-08-25T03:18:01.173Z,99.90
2022-08-25T03:20:29.667Z,99.90
2022-08-25T03:22:57.365Z,99.90
2022-08-25T03:25:42.720Z,99.90
2022-08-25T03:28:11.027Z,99.90
2022-08-25T03:30:39.432Z,99.90
2022-08-25T03:33:08.699Z,99.90
2022-08-25T03:35:36.453Z,99.90
2022-08-25T03:38:04.445Z,99.90
2022-08-25T03:40:33.100Z,99.90
2022-08-25T03:43:00.945Z,99.90
2022-08-25T03:45:28.820Z,99.90
2022-08-25T03:47:56.714Z,99.90
2022-08-25T03:50:25.760Z,99.90
2022-08-25T03:52:54.434Z,99.90
2022-08-25T03:55:23.294Z,99.90
2022-08-25T03:57:51.347Z,99.90
2022-08-25T04:00:19.815Z,99.90
2022-08-25T04:02:47.869Z,99.90
2022-08-25T04:05:15.952Z,99.90
2022-08-25T04:07:45.095Z,99.90
2022-08-25T04:10:13.641Z,99.90
2022-08-25T04:12:41.734Z,99.90
2022-08-25T04:15:10.593Z,99.90
2022-08-25T04:17:38.819Z,99.90
2022-08-25T04:20:08.022Z,99.90
2022-08-25T04:22:36.717Z,99.90
2022-08-25T04:25:07.136Z,99.90
2022-08-25T04:27:34.857Z,99.90
2022-08-25T04:30:02.987Z,99.90
2022-08-25T04:32:32.168Z,99.90
2022-08-25T04:34:59.941Z,99.90
2022-08-25T04:37:27.729Z,99.90
2022-08-25T04:39:55.577Z,99.90
2022-08-25T04:42:26.315Z,99.90
2022-08-25T04:44:54.405Z,99.90
2022-08-25T04:47:22.456Z,99.90
2022-08-25T04:49:50.790Z,99.90
2022-08-25T04:52:18.494Z,99.90
2022-08-25T04:54:46.396Z,99.90
2022-08-25T04:57:14.308Z,99.90
2022-08-25T04:59:43.399Z,99.90
2022-08-25T05:02:11.113Z,99.90
2022-08-25T05:04:38.863Z,99.90
2022-08-25T05:07:06.961Z,99.90
2022-08-25T05:09:34.852Z,99.90
2022-08-25T05:12:03.174Z,99.90
2022-08-25T05:14:31.199Z,99.90
2022-08-25T05:17:01.007Z,99.90
2022-08-25T05:19:28.721Z,99.90
2022-08-25T05:21:57.761Z,99.90
2022-08-25T05:24:26.323Z,99.90
2022-08-25T05:26:54.013Z,99.90
2022-08-25T05:29:21.791Z,99.90
2022-08-25T05:31:50.857Z,99.90
2022-08-25T05:34:20.641Z,99.90
2022-08-25T05:36:48.633Z,99.90
2022-08-25T05:39:16.516Z,99.90
2022-08-25T05:41:44.356Z,99.90
2022-08-25T05:44:12.624Z,99.90
2022-08-25T05:46:40.393Z,99.90
2022-08-25T05:49:08.127Z,99.90
2022-08-25T05:51:37.199Z,99.90
2022-08-25T05:54:05.633Z,99.90
2022-08-25T05:56:33.326Z,99.90
2022-08-25T05:59:01.914Z,99.90
2022-08-25T06:01:49.234Z,99.90
2022-08-25T06:04:17.679Z,99.90
2022-08-25T06:06:48.137Z,99.90
2022-08-25T06:09:15.919Z,99.90
2022-08-25T06:11:43.724Z,99.90
2022-08-25T06:14:11.992Z,99.90
2022-08-25T06:16:40.276Z,99.90
2022-08-25T06:19:08.884Z,99.90
2022-08-25T06:21:39.028Z,99.90
2022-08-25T06:24:12.091Z,99.90
2022-08-25T06:26:43.170Z,99.90
2022-08-25T06:29:10.905Z,99.90
2022-08-25T06:31:38.746Z,99.90
2022-08-25T06:34:07.010Z,99.90
2022-08-25T06:36:34.797Z,99.90
2022-08-25T06:39:02.963Z,99.90
2022-08-25T06:41:36.548Z,99.90
2022-08-25T06:44:05.665Z,99.90
2022-08-25T06:46:35.897Z,99.90
2022-08-25T06:49:04.954Z,99.90
2022-08-25T06:51:32.669Z,99.90
2022-08-25T06:54:01.043Z,99.90
2022-08-25T06:56:28.970Z,99.90
2022-08-25T06:58:58.083Z,99.90
2022-08-25T07:01:27.094Z,99.90
2022-08-25T07:03:57.317Z,99.90
2022-08-25T07:06:26.028Z,99.90
2022-08-25T07:08:53.939Z,99.90
2022-08-25T07:11:21.883Z,99.90
2022-08-25T07:13:50.359Z,99.90
2022-08-25T07:16:20.288Z,99.90
2022-08-25T07:18:48.883Z,99.90
2022-08-25T07:21:17.494Z,99.90
2022-08-25T07:23:47.455Z,99.90
2022-08-25T07:26:36.269Z,99.90
2022-08-25T07:29:04.696Z,99.90
2022-08-25T07:31:35.066Z,99.90
2022-08-25T07:34:20.272Z,99.90
2022-08-25T07:36:48.098Z,99.90
2022-08-25T07:39:16.593Z,99.90
2022-08-25T07:41:44.332Z,99.90
2022-08-25T07:44:13.639Z,99.90
2022-08-25T07:46:43.168Z,99.90
2022-08-25T07:49:16.449Z,99.90
2022-08-25T07:52:05.548Z,99.90
2022-08-25T07:54:34.148Z,99.90
2022-08-25T07:57:02.394Z,99.90
2022-08-25T07:59:30.138Z,99.90
2022-08-25T08:01:59.845Z,99.90
2022-08-25T08:04:27.628Z,99.90
2022-08-25T08:06:56.194Z,99.90
2022-08-25T08:09:23.920Z,99.90
2022-08-25T08:11:54.031Z,99.90
2022-08-25T08:14:22.434Z,99.90
2022-08-25T08:16:50.494Z,99.90
2022-08-25T08:19:23.046Z,99.90
2022-08-25T08:21:52.551Z,99.90
2022-08-25T08:24:44.003Z,99.90
2022-08-25T08:27:10.557Z,99.90
2022-08-25T08:29:38.670Z,99.90
2022-08-25T08:32:07.412Z,99.90
2022-08-25T08:34:36.614Z,99.90
2022-08-25T08:37:04.645Z,99.90
2022-08-25T08:39:32.763Z,99.90
2022-08-25T08:42:22.104Z,99.90
2022-08-25T08:45:02.687Z,99.90
2022-08-25T08:47:38.304Z,99.90
2022-08-25T08:50:22.464Z,99.90
2022-08-25T08:52:55.505Z,99.90
2022-08-25T08:55:27.470Z,99.90
2022-08-25T08:57:58.659Z,99.90
2022-08-25T09:00:27.192Z,99.80
2022-08-25T09:02:58.527Z,99.90
2022-08-25T09:05:29.147Z,99.30
2022-08-25T09:07:58.256Z,99.50
2022-08-25T09:10:27.823Z,98.60
2022-08-25T09:12:59.747Z,98.60
2022-08-25T09:15:48.801Z,98.00
2022-08-25T09:18:19.216Z,97.70
2022-08-25T09:21:01.510Z,98.40
2022-08-25T09:23:34.611Z,98.40
2022-08-25T09:26:06.145Z,98.20
2022-08-25T09:28:39.746Z,96.90
2022-08-25T09:31:14.713Z,97.10
2022-08-25T09:33:42.498Z,97.30
2022-08-25T09:36:11.842Z,96.40
2022-08-25T09:38:40.059Z,96.40
2022-08-25T09:41:08.411Z,96.30
2022-08-25T09:43:37.055Z,96.00
2022-08-25T09:46:11.240Z,95.80
2022-08-25T09:48:44.527Z,95.90
2022-08-25T09:51:22.140Z,95.90
2022-08-25T09:53:52.873Z,95.30
2022-08-25T09:56:22.291Z,95.00
2022-08-25T09:58:50.495Z,94.80
2022-08-25T10:01:19.030Z,94.50
2022-08-25T10:03:58.166Z,94.30
2022-08-25T10:06:28.232Z,94.60
2022-08-25T10:08:59.611Z,94.40
2022-08-25T10:11:34.232Z,93.80
2022-08-25T10:14:03.142Z,94.30
2022-08-25T10:16:36.078Z,93.60
2022-08-25T10:19:06.683Z,93.60
2022-08-25T10:21:37.797Z,93.60
2022-08-25T10:24:06.818Z,93.40
2022-08-25T10:26:37.792Z,93.30
2022-08-25T10:29:11.817Z,93.20
2022-08-25T10:31:44.992Z,93.20
2022-08-25T10:34:20.037Z,93.50
2022-08-25T10:36:56.118Z,93.00
2022-08-25T10:39:36.478Z,93.30
2022-08-25T10:42:10.406Z,93.40
2022-08-25T10:45:04.039Z,93.10
2022-08-25T10:47:50.343Z,92.90
2022-08-25T10:50:23.530Z,92.60
2022-08-25T10:52:59.411Z,92.70
2022-08-25T10:55:30.635Z,92.80
2022-08-25T10:58:03.333Z,93.50
2022-08-25T11:00:35.148Z,93.40
2022-08-25T11:03:12.545Z,93.10
2022-08-25T11:05:42.332Z,93.20
2022-08-25T11:08:14.839Z,92.80
2022-08-25T11:10:45.597Z,92.40
2022-08-25T11:13:22.367Z,91.80
2022-08-25T11:16:15.574Z,91.60
2022-08-25T11:18:51.054Z,91.10
2022-08-25T11:21:22.179Z,91.00
2022-08-25T11:23:54.812Z,91.10
2022-08-25T11:26:31.884Z,90.90
2022-08-25T11:29:04.123Z,90.70
2022-08-25T11:31:36.354Z,90.80
2022-08-25T11:34:04.089Z,91.20
2022-08-25T11:36:35.392Z,91.10
2022-08-25T11:39:11.178Z,91.40
2022-08-25T11:41:42.097Z,91.50
2022-08-25T11:44:16.447Z,91.50
2022-08-25T11:46:57.223Z,91.40
2022-08-25T11:49:35.709Z,92.20
2022-08-25T11:52:03.635Z,92.00
2022-08-25T11:54:36.463Z,91.90
2022-08-25T11:57:06.468Z,92.00
2022-08-25T11:59:53.160Z,92.10
2022-08-25T12:02:29.684Z,92.50
2022-08-25T12:04:57.902Z,92.80
2022-08-25T12:07:28.070Z,92.30
2022-08-25T12:10:10.749Z,92.30
2022-08-25T12:12:56.138Z,92.20
2022-08-25T12:15:25.830Z,92.30
2022-08-25T12:18:11.305Z,92.20
2022-08-25T12:20:58.137Z,92.30
2022-08-25T12:23:28.735Z,92.10
2022-08-25T12:25:57.994Z,91.60
2022-08-25T12:28:37.157Z,91.90
2022-08-25T12:31:10.133Z,91.70
2022-08-25T12:33:44.108Z,91.70
2022-08-25T12:36:12.508Z,92.00
2022-08-25T12:38:45.439Z,91.90
2022-08-25T12:41:16.355Z,91.90
2022-08-25T12:43:46.447Z,91.40
2022-08-25T12:46:32.792Z,91.00
2022-08-25T12:49:01.550Z,90.60
2022-08-25T12:51:39.103Z,91.00
2022-08-25T12:54:16.105Z,90.50
2022-08-25T12:56:53.494Z,90.00
2022-08-25T12:59:23.554Z,89.80
2022-08-25T13:01:58.582Z,88.80
2022-08-25T13:04:36.132Z,89.30
2022-08-25T13:07:18.770Z,88.00
2022-08-25T13:10:00.735Z,87.00
2022-08-25T13:12:32.430Z,83.80
2022-08-25T13:15:01.466Z,82.70
2022-08-25T13:17:30.587Z,82.60
2022-08-25T13:20:19.259Z,82.60
2022-08-25T13:22:48.562Z,82.70
2022-08-25T13:25:17.876Z,83.80
2022-08-25T13:27:52.409Z,83.90
2022-08-25T13:30:32.459Z,84.50
2022-08-25T13:33:00.795Z,83.80
2022-08-25T13:35:36.638Z,83.90
2022-08-25T13:38:13.555Z,84.10
2022-08-25T13:40:43.113Z,84.50
2022-08-25T13:43:13.001Z,83.20
2022-08-25T13:45:44.011Z,83.00
2022-08-25T13:48:21.191Z,83.50
2022-08-25T13:50:52.919Z,83.90
2022-08-25T13:53:23.747Z,84.00
2022-08-25T13:55:53.244Z,83.90
2022-08-25T13:58:24.242Z,83.10
2022-08-25T14:01:03.804Z,83.30
2022-08-25T14:03:51.987Z,81.50
2022-08-25T14:06:23.529Z,81.20
2022-08-25T14:09:05.734Z,80.30
2022-08-25T14:11:35.406Z,80.00
2022-08-25T14:14:05.197Z,79.40
2022-08-25T14:16:37.244Z,80.00
2022-08-25T14:19:05.037Z,78.30
2022-08-25T14:21:34.595Z,78.90
2022-08-25T14:24:02.470Z,77.90
2022-08-25T14:26:30.512Z,77.60
2022-08-25T14:28:58.322Z,77.00
2022-08-25T14:31:28.135Z,76.50
2022-08-25T14:33:59.818Z,74.90
2022-08-25T14:36:29.591Z,74.60
2022-08-25T14:38:58.373Z,74.20
2022-08-25T14:41:26.481Z,73.80
2022-08-25T14:43:54.610Z,73.40
2022-08-25T14:46:23.490Z,73.30
2022-08-25T14:48:54.531Z,73.40
2022-08-25T14:51:25.749Z,73.90
2022-08-25T14:53:56.731Z,73.10
2022-08-25T14:56:24.588Z,72.40
2022-08-25T14:58:55.521Z,73.00
2022-08-25T15:01:29.148Z,73.00
2022-08-25T15:03:59.348Z,72.60
2022-08-25T15:06:29.371Z,72.40
2022-08-25T15:09:08.738Z,71.90
2022-08-25T15:11:36.830Z,71.40
2022-08-25T15:14:10.909Z,71.80
2022-08-25T15:16:41.169Z,72.50
2022-08-25T15:19:11.512Z,72.60
2022-08-25T15:21:40.580Z,72.40
2022-08-25T15:24:09.620Z,72.20
2022-08-25T15:26:40.863Z,71.90
2022-08-25T15:29:08.735Z,71.80
2022-08-25T15:31:37.160Z,71.20
2022-08-25T15:34:06.341Z,71.40
2022-08-25T15:36:34.604Z,71.40
2022-08-25T15:39:05.024Z,71.00
2022-08-25T15:41:33.199Z,71.60
2022-08-25T15:44:01.141Z,71.50
2022-08-25T15:46:30.136Z,71.50
2022-08-25T15:48:59.458Z,71.60
2022-08-25T15:51:27.406Z,71.30
2022-08-25T15:53:55.800Z,71.00
2022-08-25T15:56:26.740Z,71.00
2022-08-25T15:58:55.317Z,70.60
2022-08-25T16:01:24.811Z,71.90
2022-08-25T16:03:52.722Z,71.00
2022-08-25T16:06:20.578Z,71.40
2022-08-25T16:08:48.605Z,71.90
2022-08-25T16:11:18.544Z,72.40
2022-08-25T16:13:47.868Z,72.90
2022-08-25T16:16:16.290Z,72.90
2022-08-25T16:18:44.634Z,74.10
2022-08-25T16:21:13.172Z,75.50
2022-08-25T16:23:42.432Z,76.00
2022-08-25T16:26:12.887Z,76.90
2022-08-25T16:28:43.728Z,77.40
2022-08-25T16:31:14.022Z,77.80
2022-08-25T16:36:16.237Z,78.50
2022-08-25T16:38:48.837Z,78.90
2022-08-25T16:41:18.894Z,79.50
2022-08-25T16:43:47.031Z,79.90
2022-08-25T16:46:18.301Z,79.60
2022-08-25T16:48:46.042Z,80.30
2022-08-25T16:51:14.824Z,80.00
2022-08-25T16:53:59.911Z,79.90
2022-08-25T16:56:28.985Z,80.10
2022-08-25T16:58:57.492Z,80.10
2022-08-25T17:01:27.060Z,80.00
2022-08-25T17:03:56.639Z,80.20
2022-08-25T17:06:25.632Z,80.00
2022-08-25T17:08:53.413Z,80.30
2022-08-25T17:11:22.610Z,80.70
2022-08-25T17:13:51.983Z,80.40
2022-08-25T17:16:21.042Z,80.50
2022-08-25T17:18:50.202Z,80.70
2022-08-25T17:21:24.380Z,80.70
2022-08-25T17:23:53.251Z,80.60
2022-08-25T17:26:27.824Z,80.30
2022-08-25T17:28:56.808Z,80.60
2022-08-25T17:31:27.108Z,80.90
2022-08-25T17:33:57.311Z,81.00
2022-08-25T17:36:27.045Z,81.20
2022-08-25T17:38:55.405Z,81.80
2022-08-25T17:41:24.919Z,82.00
2022-08-25T17:43:52.711Z,82.00
2022-08-25T17:46:21.525Z,82.50
2022-08-25T17:48:49.331Z,82.70
2022-08-25T17:51:18.432Z,82.50
2022-08-25T17:53:46.822Z,83.00
2022-08-25T17:56:15.948Z,83.20
2022-08-25T17:58:44.483Z,83.30
2022-08-25T18:01:16.833Z,83.40
2022-08-25T18:03:44.690Z,84.20
2022-08-25T18:06:15.036Z,84.50
2022-08-25T18:08:51.727Z,84.90
2022-08-25T18:11:20.665Z,85.40
2022-08-25T18:13:50.420Z,86.00
2022-08-25T18:16:18.319Z,86.30
2022-08-25T18:18:46.068Z,86.50
2022-08-25T18:21:15.506Z,86.70
2022-08-25T18:23:43.636Z,87.20
2022-08-25T18:26:14.694Z,87.30
2022-08-25T18:28:43.925Z,87.50
2022-08-25T18:31:13.112Z,87.90
2022-08-25T18:33:44.547Z,88.10
2022-08-25T18:36:13.316Z,88.40
2022-08-25T18:39:07.204Z,88.80
2022-08-25T18:41:38.148Z,89.20
2022-08-25T18:44:06.456Z,89.40
2022-08-25T18:46:34.311Z,90.00
2022-08-25T18:49:02.088Z,90.10
2022-08-25T18:51:32.881Z,90.20
2022-08-25T18:54:01.468Z,90.30
2022-08-25T18:56:29.713Z,90.50
2022-08-25T18:58:59.405Z,90.60
2022-08-25T19:01:27.604Z,90.60
2022-08-25T19:03:56.462Z,90.50
2022-08-25T19:06:24.331Z,90.60
2022-08-25T19:08:52.532Z,90.70
2022-08-25T19:11:22.238Z,90.90
2022-08-25T19:13:50.415Z,91.00
2022-08-25T19:16:20.840Z,91.20
2022-08-25T19:18:49.030Z,91.20
2022-08-25T19:21:22.645Z,91.10
2022-08-25T19:23:50.769Z,91.50
2022-08-25T19:26:19.073Z,91.40
2022-08-25T19:28:49.024Z,91.40
2022-08-25T19:31:18.333Z,91.70
2022-08-25T19:33:48.794Z,91.80
2022-08-25T19:36:17.444Z,91.90
2022-08-25T19:38:45.374Z,91.90
2022-08-25T19:41:15.007Z,91.80
2022-08-25T19:43:56.513Z,92.30
2022-08-25T19:46:32.481Z,92.20
2022-08-25T19:49:07.365Z,92.20
2022-08-25T19:51:36.725Z,92.40
2022-08-25T19:54:05.200Z,92.20
2022-08-25T19:56:35.056Z,92.20
2022-08-25T19:59:04.957Z,92.40
2022-08-25T20:01:33.022Z,92.30
2022-08-25T20:04:03.401Z,92.40
2022-08-25T20:06:32.074Z,92.30
2022-08-25T20:09:00.421Z,92.50
2022-08-25T20:11:28.683Z,92.30
2022-08-25T20:13:59.292Z,92.40
2022-08-25T20:16:30.905Z,92.50
2022-08-25T20:19:00.211Z,92.50
2022-08-25T20:21:30.823Z,92.50
2022-08-25T20:24:16.135Z,92.50
2022-08-25T20:26:44.054Z,92.50
2022-08-25T20:29:12.832Z,92.40
2022-08-25T20:31:41.103Z,92.50
2022-08-25T20:34:11.468Z,92.60
2022-08-25T20:36:49.691Z,92.50
2022-08-25T20:39:18.030Z,92.90
2022-08-25T20:41:48.437Z,92.70
2022-08-25T20:44:16.554Z,92.70
2022-08-25T20:46:45.285Z,92.90
2022-08-25T20:49:13.609Z,92.90
2022-08-25T20:51:42.974Z,92.70
2022-08-25T20:54:12.707Z,93.00
2022-08-25T20:56:40.463Z,93.10
2022-08-25T20:59:10.296Z,93.00
2022-08-25T21:01:39.754Z,93.50
2022-08-25T21:04:08.308Z,93.20
2022-08-25T21:06:37.535Z,93.10
2022-08-25T21:09:12.493Z,93.80
2022-08-25T21:11:44.028Z,93.60
2022-08-25T21:14:13.305Z,94.00
2022-08-25T21:16:41.482Z,93.60
2022-08-25T21:19:11.077Z,93.80
2022-08-25T21:21:40.098Z,93.70
2022-08-25T21:24:10.006Z,94.20
2022-08-25T21:26:48.923Z,94.00
2022-08-25T21:29:17.762Z,94.10
2022-08-25T21:31:46.395Z,94.20
2022-08-25T21:34:17.068Z,94.40
2022-08-25T21:36:47.192Z,94.40
2022-08-25T21:39:16.246Z,94.40
2022-08-25T21:41:45.157Z,94.70
2022-08-25T21:44:13.763Z,94.70
2022-08-25T21:46:42.129Z,94.80
2022-08-25T21:49:21.810Z,95.00
2022-08-25T21:51:59.381Z,95.20
2022-08-25T21:54:30.081Z,95.10
2022-08-25T21:56:59.676Z,95.50
2022-08-25T21:59:28.894Z,95.30
2022-08-25T22:01:57.490Z,95.80
2022-08-25T22:04:25.766Z,95.60
2022-08-25T22:06:54.291Z,95.90
2022-08-25T22:09:22.665Z,95.60
2022-08-25T22:11:53.225Z,95.90
2022-08-25T22:14:23.344Z,96.00
2022-08-25T22:16:51.896Z,96.50
2022-08-25T22:19:19.818Z,96.50
2022-08-25T22:21:47.506Z,96.50
2022-08-25T22:24:16.112Z,96.40
2022-08-25T22:26:47.362Z,96.50
2022-08-25T22:29:24.867Z,96.50
2022-08-25T22:31:53.841Z,96.40
2022-08-25T22:34:30.737Z,97.30
2022-08-25T22:37:00.178Z,97.70
2022-08-25T22:39:28.475Z,96.90
2022-08-25T22:41:56.334Z,96.60
2022-08-25T22:44:25.517Z,97.10
2022-08-25T22:46:53.369Z,97.30
2022-08-25T22:49:21.708Z,97.00
2022-08-25T22:51:49.920Z,96.80
2022-08-25T22:54:18.693Z,97.00
2022-08-25T22:56:46.427Z,97.60
2022-08-25T22:59:15.426Z,97.40
2022-08-25T23:01:45.358Z,97.90
2022-08-25T23:04:13.604Z,97.90
2022-08-25T23:06:41.403Z,98.20
2022-08-25T23:09:10.787Z,98.20
2022-08-25T23:11:38.887Z,98.50
2022-08-25T23:14:09.447Z,98.60
2022-08-25T23:16:37.488Z,98.20
2022-08-25T23:19:06.611Z,98.50
2022-08-25T23:21:52.849Z,98.80
2022-08-25T23:24:29.151Z,98.90
2022-08-25T23:26:58.068Z,98.70
2022-08-25T23:29:25.871Z,99.20
2022-08-25T23:31:53.823Z,99.40
2022-08-25T23:34:22.967Z,99.90
2022-08-25T23:36:50.752Z,99.50
2022-08-25T23:39:18.625Z,99.90
2022-08-25T23:41:50.464Z,99.90
2022-08-25T23:44:18.757Z,99.90
2022-08-25T23:46:47.359Z,99.90
2022-08-25T23:49:18.150Z,99.90
2022-08-25T23:51:47.847Z,99.90
2022-08-25T23:54:16.918Z,99.90
2022-08-25T23:56:52.189Z,99.90
2022-08-25T23:59:24.268Z,99.90
